createdAt,value
2018-08-03T00:01:51.458Z,83.50
2018-08-03T00:04:20.297Z,83.10
2018-08-03T00:06:49.157Z,83.80
2018-08-03T00:09:18.762Z,84.90
2018-08-03T00:11:47.604Z,84.90
2018-08-03T00:14:16.458Z,84.80
2018-08-03T00:16:45.297Z,85.20
2018-08-03T00:19:14.130Z,85.90
2018-08-03T00:21:42.970Z,86.50
2018-08-03T00:24:11.813Z,87.00
2018-08-03T00:26:40.652Z,87.60
2018-08-03T00:29:09.503Z,87.30
2018-08-03T00:31:38.342Z,86.50
2018-08-03T00:34:07.192Z,86.40
2018-08-03T00:36:36.034Z,86.70
2018-08-03T00:39:05.620Z,86.30
2018-08-03T00:41:34.481Z,85.90
2018-08-03T00:44:03.313Z,85.20
2018-08-03T00:46:32.178Z,84.30
2018-08-03T00:49:01.022Z,83.70
2018-08-03T00:51:29.873Z,83.70
2018-08-03T00:53:58.719Z,83.30
2018-08-03T00:56:27.572Z,83.50
2018-08-03T00:58:56.410Z,83.40
2018-08-03T01:01:25.245Z,84.00
2018-08-03T01:03:54.092Z,84.20
2018-08-03T01:06:22.929Z,84.30
2018-08-03T01:08:51.785Z,84.10
2018-08-03T01:11:20.636Z,83.50
2018-08-03T01:13:49.478Z,83.30
2018-08-03T01:16:18.330Z,84.10
2018-08-03T01:18:47.158Z,82.60
2018-08-03T01:21:16.738Z,82.50
2018-08-03T01:23:45.565Z,82.10
2018-08-03T01:26:15.151Z,81.90
2018-08-03T01:28:43.994Z,81.50
2018-08-03T01:31:12.836Z,81.60
2018-08-03T01:33:41.688Z,81.30
2018-08-03T01:36:10.528Z,81.60
2018-08-03T01:38:40.104Z,81.30
2018-08-03T01:41:08.938Z,81.30
2018-08-03T01:43:37.781Z,81.50
2018-08-03T01:46:06.626Z,81.80
2018-08-03T01:48:35.473Z,81.60
2018-08-03T01:51:04.322Z,81.70
2018-08-03T01:53:33.153Z,81.10
2018-08-03T01:56:02.747Z,82.00
2018-08-03T01:58:31.578Z,81.30
2018-08-03T02:01:00.423Z,81.60
2018-08-03T02:03:29.264Z,81.60
2018-08-03T02:05:58.114Z,81.70
2018-08-03T02:08:27.690Z,82.30
2018-08-03T02:10:56.527Z,82.10
2018-08-03T02:13:25.370Z,83.70
2018-08-03T02:15:54.212Z,82.40
2018-08-03T02:18:23.048Z,82.30
2018-08-03T02:20:51.890Z,82.30
2018-08-03T02:23:20.725Z,82.40
2018-08-03T02:25:49.565Z,82.50
2018-08-03T02:28:18.405Z,82.70
2018-08-03T02:30:47.247Z,82.20
2018-08-03T02:33:16.097Z,82.30
2018-08-03T02:35:44.939Z,82.20
2018-08-03T02:38:13.782Z,82.30
2018-08-03T02:40:42.648Z,82.10
2018-08-03T02:43:11.490Z,82.30
2018-08-03T02:45:40.335Z,83.70
2018-08-03T02:48:09.171Z,83.10
2018-08-03T02:50:38.003Z,83.10
2018-08-03T02:53:06.847Z,83.30
2018-08-03T02:55:35.680Z,83.00
2018-08-03T02:58:04.529Z,83.10
2018-08-03T03:00:33.383Z,83.00
2018-08-03T03:03:02.245Z,82.80
2018-08-03T03:05:31.090Z,82.30
2018-08-03T03:07:59.928Z,82.30
2018-08-03T03:10:28.824Z,82.10
2018-08-03T03:12:57.655Z,81.80
2018-08-03T03:15:26.492Z,81.70
2018-08-03T03:17:55.321Z,81.50
2018-08-03T03:20:24.162Z,81.30
2018-08-03T03:22:53.006Z,80.90
2018-08-03T03:25:22.582Z,81.10
2018-08-03T03:27:51.426Z,81.50
2018-08-03T03:30:20.263Z,81.70
2018-08-03T03:32:49.114Z,81.70
2018-08-03T03:35:17.953Z,81.70
2018-08-03T03:37:46.784Z,81.70
2018-08-03T03:40:15.622Z,81.60
2018-08-03T03:42:44.467Z,81.70
2018-08-03T03:45:13.305Z,81.80
2018-08-03T03:47:42.144Z,81.70
2018-08-03T03:50:10.978Z,81.70
2018-08-03T03:52:39.832Z,81.50
2018-08-03T03:55:08.669Z,81.20
2018-08-03T03:57:37.502Z,81.20
2018-08-03T04:00:07.098Z,81.20
2018-08-03T04:02:35.929Z,81.30
2018-08-03T04:05:04.771Z,81.10
2018-08-03T04:07:33.619Z,81.50
2018-08-03T04:10:02.446Z,81.20
2018-08-03T04:12:31.277Z,81.20
2018-08-03T04:15:00.858Z,81.20
2018-08-03T04:17:29.703Z,81.10
2018-08-03T04:19:58.535Z,81.10
2018-08-03T04:22:27.393Z,81.40
2018-08-03T04:24:56.229Z,81.40
2018-08-03T04:27:25.819Z,81.60
2018-08-03T04:29:54.669Z,81.90
2018-08-03T04:32:23.509Z,82.20
2018-08-03T04:34:52.359Z,82.10
2018-08-03T04:37:21.203Z,82.20
2018-08-03T04:39:50.056Z,82.30
2018-08-03T04:42:18.932Z,82.80
2018-08-03T04:44:47.734Z,83.10
2018-08-03T04:47:16.566Z,83.50
2018-08-03T04:49:45.416Z,83.60
2018-08-03T04:52:14.255Z,84.50
2018-08-03T04:54:43.129Z,84.00
2018-08-03T04:57:11.952Z,84.30
2018-08-03T04:59:40.793Z,84.30
2018-08-03T05:02:10.391Z,85.20
2018-08-03T05:04:39.279Z,84.50
2018-08-03T05:07:08.072Z,84.80
2018-08-03T05:09:36.931Z,85.50
2018-08-03T05:12:05.767Z,85.20
2018-08-03T05:14:34.611Z,85.10
2018-08-03T05:17:03.449Z,85.00
2018-08-03T05:19:33.023Z,85.10
2018-08-03T05:22:01.868Z,85.30
2018-08-03T05:24:30.718Z,85.60
2018-08-03T05:26:59.566Z,86.30
2018-08-03T05:29:28.411Z,86.70
2018-08-03T05:31:57.280Z,87.10
2018-08-03T05:34:26.128Z,87.20
2018-08-03T05:36:54.969Z,87.20
2018-08-03T05:41:53.251Z,87.40
2018-08-03T05:44:22.109Z,87.80
2018-08-03T05:46:50.949Z,88.00
2018-08-03T05:49:19.811Z,88.20
2018-08-03T05:51:48.656Z,88.00
2018-08-03T05:54:17.512Z,88.00
2018-08-03T05:56:47.102Z,87.90
2018-08-03T05:59:15.952Z,87.90
2018-08-03T06:01:44.803Z,88.10
2018-08-03T06:04:13.674Z,87.90
2018-08-03T06:06:43.266Z,87.70
2018-08-03T06:09:12.112Z,87.80
2018-08-03T06:11:40.961Z,88.00
2018-08-03T06:14:09.816Z,87.70
2018-08-03T06:16:38.657Z,87.70
2018-08-03T06:19:07.510Z,87.70
2018-08-03T06:21:36.343Z,88.10
2018-08-03T06:24:05.213Z,88.00
2018-08-03T06:26:34.053Z,87.30
2018-08-03T06:29:02.895Z,87.00
2018-08-03T06:31:31.735Z,87.00
2018-08-03T06:34:00.587Z,86.70
2018-08-03T06:36:29.451Z,86.70
2018-08-03T06:38:58.299Z,86.10
2018-08-03T06:41:27.161Z,86.00
2018-08-03T06:43:56.012Z,85.80
2018-08-03T06:46:24.920Z,85.30
2018-08-03T06:48:53.738Z,84.90
2018-08-03T06:51:22.586Z,84.40
2018-08-03T06:53:52.200Z,84.60
2018-08-03T06:56:21.043Z,84.10
2018-08-03T06:58:49.888Z,84.10
2018-08-03T07:01:18.728Z,83.80
2018-08-03T07:03:47.572Z,83.80
2018-08-03T07:06:16.416Z,83.70
2018-08-03T07:08:45.276Z,83.20
2018-08-03T07:11:14.883Z,83.10
2018-08-03T07:16:13.152Z,83.50
2018-08-03T07:18:41.997Z,83.10
2018-08-03T07:21:11.588Z,82.40
2018-08-03T07:23:40.646Z,82.60
2018-08-03T07:26:09.461Z,82.10
2018-08-03T07:28:38.310Z,81.60
2018-08-03T07:31:07.170Z,81.40
2018-08-03T07:33:36.009Z,81.00
2018-08-03T07:36:04.856Z,80.30
2018-08-03T07:38:33.697Z,80.00
2018-08-03T07:41:02.552Z,80.40
2018-08-03T07:43:31.424Z,79.80
2018-08-03T07:46:00.992Z,78.10
2018-08-03T07:48:29.857Z,77.40
2018-08-03T07:50:58.698Z,76.60
2018-08-03T07:53:27.535Z,76.70
2018-08-03T07:55:56.393Z,76.30
2018-08-03T07:58:25.236Z,75.40
2018-08-03T08:00:54.079Z,74.90
2018-08-03T08:03:22.909Z,74.40
2018-08-03T08:05:51.765Z,74.30
2018-08-03T08:08:20.600Z,73.40
2018-08-03T08:10:49.436Z,72.70
2018-08-03T08:13:18.271Z,72.20
2018-08-03T08:15:47.150Z,72.30
2018-08-03T08:18:15.982Z,71.20
2018-08-03T08:20:44.828Z,71.80
2018-08-03T08:23:13.663Z,70.60
2018-08-03T08:25:42.511Z,69.80
2018-08-03T08:28:11.346Z,69.90
2018-08-03T08:30:40.196Z,69.40
2018-08-03T08:33:09.032Z,69.00
2018-08-03T08:35:37.872Z,68.60
2018-08-03T08:38:06.711Z,69.70
2018-08-03T08:40:35.558Z,70.50
2018-08-03T08:43:04.403Z,70.40
2018-08-03T08:45:33.267Z,70.30
2018-08-03T08:48:02.858Z,68.70
2018-08-03T08:50:31.703Z,69.50
2018-08-03T08:53:00.549Z,70.30
2018-08-03T08:55:30.131Z,70.20
2018-08-03T08:57:58.974Z,69.80
2018-08-03T09:00:27.812Z,68.80
2018-08-03T09:02:56.673Z,68.60
2018-08-03T09:05:25.508Z,68.60
2018-08-03T09:07:55.177Z,67.80
2018-08-03T09:10:23.969Z,67.40
2018-08-03T09:12:52.833Z,67.60
2018-08-03T09:15:20.905Z,67.60
2018-08-03T09:17:49.769Z,66.60
2018-08-03T09:20:18.624Z,66.40
2018-08-03T09:22:47.474Z,65.90
2018-08-03T09:25:16.308Z,64.60
2018-08-03T09:27:45.146Z,64.00
2018-08-03T09:30:14.006Z,64.30
2018-08-03T09:32:42.855Z,63.20
2018-08-03T09:35:11.707Z,62.40
2018-08-03T09:37:40.539Z,62.90
2018-08-03T09:40:09.387Z,61.50
2018-08-03T09:42:38.223Z,62.10
2018-08-03T09:45:07.080Z,62.20
2018-08-03T09:47:35.970Z,60.50
2018-08-03T09:50:05.525Z,60.40
2018-08-03T09:52:34.373Z,60.90
2018-08-03T09:55:03.218Z,60.00
2018-08-03T09:57:32.060Z,60.70
2018-08-03T10:00:00.901Z,59.90
2018-08-03T10:02:29.747Z,59.10
2018-08-03T10:04:58.592Z,58.90
2018-08-03T10:07:27.524Z,58.80
2018-08-03T10:09:56.276Z,58.50
2018-08-03T10:12:25.114Z,58.90
2018-08-03T10:14:53.957Z,58.50
2018-08-03T10:17:22.921Z,58.70
2018-08-03T10:19:51.642Z,57.60
2018-08-03T10:22:20.540Z,57.20
2018-08-03T10:24:49.318Z,56.80
2018-08-03T10:27:18.186Z,55.50
2018-08-03T10:29:47.093Z,55.70
2018-08-03T10:32:15.881Z,55.30
2018-08-03T10:34:44.727Z,54.80
2018-08-03T10:37:14.315Z,55.20
2018-08-03T10:39:43.175Z,54.10
2018-08-03T10:42:12.009Z,52.80
2018-08-03T10:44:40.853Z,52.10
2018-08-03T10:47:09.732Z,52.90
2018-08-03T10:49:38.533Z,53.10
2018-08-03T10:52:07.391Z,53.30
2018-08-03T10:54:36.975Z,53.20
2018-08-03T10:57:05.813Z,53.60
2018-08-03T10:59:34.664Z,52.80
2018-08-03T11:02:04.243Z,53.60
2018-08-03T11:04:33.074Z,52.30
2018-08-03T11:07:01.934Z,52.10
2018-08-03T11:09:30.782Z,51.60
2018-08-03T11:11:59.635Z,50.50
2018-08-03T11:14:28.475Z,50.90
2018-08-03T11:16:57.320Z,50.50
2018-08-03T11:19:26.915Z,50.50
2018-08-03T11:21:56.496Z,49.80
2018-08-03T11:24:25.369Z,49.90
2018-08-03T11:26:54.205Z,49.20
2018-08-03T11:29:23.051Z,49.00
2018-08-03T11:31:51.904Z,48.60
2018-08-03T11:34:20.748Z,49.20
2018-08-03T11:36:49.594Z,49.60
2018-08-03T11:39:18.434Z,49.60
2018-08-03T11:41:48.016Z,47.90
2018-08-03T11:44:16.878Z,48.20
2018-08-03T11:46:45.720Z,47.70
2018-08-03T11:49:14.561Z,48.60
2018-08-03T11:51:43.403Z,47.80
2018-08-03T11:54:12.252Z,47.50
2018-08-03T11:56:41.853Z,47.10
2018-08-03T11:59:10.689Z,47.30
2018-08-03T12:01:39.531Z,47.00
2018-08-03T12:04:08.377Z,47.30
2018-08-03T12:06:37.303Z,46.90
2018-08-03T12:09:06.055Z,46.00
2018-08-03T12:11:34.919Z,45.30
2018-08-03T12:14:04.503Z,46.80
2018-08-03T12:16:33.360Z,45.20
2018-08-03T12:19:02.194Z,44.50
2018-08-03T12:24:00.474Z,45.20
2018-08-03T12:26:29.314Z,45.30
2018-08-03T12:28:58.167Z,43.50
2018-08-03T12:31:27.061Z,43.50
2018-08-03T12:33:55.871Z,44.40
2018-08-03T12:36:25.464Z,42.20
2018-08-03T12:38:55.053Z,42.50
2018-08-03T12:41:23.899Z,43.40
2018-08-03T12:43:52.737Z,42.30
2018-08-03T12:46:21.574Z,42.30
2018-08-03T12:48:50.411Z,40.70
2018-08-03T12:51:19.246Z,40.30
2018-08-03T12:53:48.104Z,41.00
2018-08-03T12:56:17.002Z,40.80
2018-08-03T12:58:45.838Z,39.90
2018-08-03T13:01:15.496Z,39.70
2018-08-03T13:03:44.294Z,39.20
2018-08-03T13:06:13.889Z,39.10
2018-08-03T13:08:42.701Z,39.40
2018-08-03T13:11:11.543Z,38.80
2018-08-03T13:13:40.377Z,38.80
2018-08-03T13:16:09.215Z,39.30
2018-08-03T13:18:38.072Z,39.50
2018-08-03T13:21:06.935Z,39.20
2018-08-03T13:23:35.770Z,39.00
2018-08-03T13:26:04.612Z,37.90
2018-08-03T13:28:34.219Z,38.50
2018-08-03T13:31:03.805Z,37.40
2018-08-03T13:33:32.647Z,37.10
2018-08-03T13:36:01.492Z,37.20
2018-08-03T13:38:30.366Z,38.00
2018-08-03T13:40:59.219Z,36.50
2018-08-03T13:43:28.062Z,37.20
2018-08-03T13:45:57.654Z,36.30
2018-08-03T13:48:26.510Z,37.10
2018-08-03T13:50:55.367Z,37.20
2018-08-03T13:53:24.214Z,36.70
2018-08-03T13:55:53.064Z,36.50
2018-08-03T13:58:21.914Z,37.00
2018-08-03T14:00:51.505Z,36.40
2018-08-03T14:03:20.350Z,36.00
2018-08-03T14:05:49.187Z,36.40
2018-08-03T14:08:18.786Z,35.70
2018-08-03T14:10:47.625Z,36.00
2018-08-03T14:13:16.488Z,35.20
2018-08-03T14:15:45.330Z,35.00
2018-08-03T14:18:14.179Z,35.30
2018-08-03T14:20:43.777Z,36.10
2018-08-03T14:23:13.367Z,35.50
2018-08-03T14:25:42.208Z,34.50
2018-08-03T14:28:11.057Z,33.70
2018-08-03T14:30:40.664Z,34.10
2018-08-03T14:33:09.511Z,33.00
2018-08-03T14:35:38.491Z,32.60
2018-08-03T14:38:07.289Z,33.10
2018-08-03T14:40:36.116Z,33.50
2018-08-03T14:43:04.965Z,33.40
2018-08-03T14:45:33.805Z,33.10
2018-08-03T14:48:03.449Z,32.50
2018-08-03T14:50:32.221Z,32.90
2018-08-03T14:53:01.079Z,33.10
2018-08-03T14:55:29.905Z,32.60
2018-08-03T14:57:58.772Z,32.90
2018-08-03T15:00:27.621Z,33.30
2018-08-03T15:02:56.455Z,33.30
2018-08-03T15:05:26.038Z,33.00
2018-08-03T15:07:54.939Z,33.40
2018-08-03T15:10:23.765Z,32.80
2018-08-03T15:12:52.623Z,33.50
2018-08-03T15:15:21.471Z,34.10
2018-08-03T15:17:50.324Z,33.70
2018-08-03T15:20:19.171Z,33.60
2018-08-03T15:22:50.335Z,34.50
2018-08-03T15:25:18.802Z,35.10
2018-08-03T15:27:47.637Z,34.40
2018-08-03T15:30:16.480Z,33.70
2018-08-03T15:32:45.313Z,34.00
2018-08-03T15:35:14.936Z,32.50
2018-08-03T15:37:43.768Z,33.00
2018-08-03T15:40:12.598Z,32.50
2018-08-03T15:42:42.179Z,33.40
2018-08-03T15:45:11.011Z,33.80
2018-08-03T15:47:39.856Z,32.80
2018-08-03T15:50:08.709Z,32.90
2018-08-03T15:52:37.597Z,33.80
2018-08-03T15:55:07.134Z,32.60
2018-08-03T15:57:35.975Z,33.10
2018-08-03T16:00:04.859Z,32.70
2018-08-03T16:02:33.710Z,32.60
2018-08-03T16:05:03.306Z,33.30
2018-08-03T16:07:32.151Z,32.60
2018-08-03T16:10:00.979Z,32.40
2018-08-03T16:12:29.814Z,32.50
2018-08-03T16:14:58.656Z,32.70
2018-08-03T16:17:27.495Z,32.70
2018-08-03T16:19:56.351Z,32.60
2018-08-03T16:24:54.648Z,31.90
2018-08-03T16:29:53.676Z,32.50
2018-08-03T16:32:23.262Z,33.70
2018-08-03T16:34:52.115Z,33.90
2018-08-03T16:37:20.958Z,34.10
2018-08-03T16:39:50.539Z,34.60
2018-08-03T16:42:19.383Z,34.00
2018-08-03T16:44:48.327Z,33.80
2018-08-03T16:47:17.806Z,32.30
2018-08-03T16:49:46.650Z,32.40
2018-08-03T16:52:15.490Z,32.50
2018-08-03T16:54:44.350Z,31.90
2018-08-03T16:57:13.181Z,32.20
2018-08-03T16:59:42.035Z,32.40
2018-08-03T17:02:10.866Z,32.00
2018-08-03T17:04:39.811Z,32.70
2018-08-03T17:07:08.680Z,32.20
2018-08-03T17:09:37.442Z,34.10
2018-08-03T17:12:06.292Z,34.30
2018-08-03T17:14:35.139Z,35.50
2018-08-03T17:17:04.010Z,35.20
2018-08-03T17:19:32.893Z,34.90
2018-08-03T17:22:01.693Z,35.70
2018-08-03T17:24:31.281Z,35.80
2018-08-03T17:27:00.121Z,36.00
2018-08-03T17:29:28.967Z,37.40
2018-08-03T17:31:57.832Z,37.80
2018-08-03T17:34:26.648Z,37.10
2018-08-03T17:36:56.283Z,38.40
2018-08-03T17:39:25.071Z,37.60
2018-08-03T17:41:53.926Z,37.70
2018-08-03T17:44:22.771Z,37.80
2018-08-03T17:46:51.619Z,37.20
2018-08-03T17:49:21.337Z,37.90
2018-08-03T17:51:50.060Z,37.80
2018-08-03T17:54:19.652Z,38.20
2018-08-03T17:56:49.228Z,38.90
2018-08-03T17:59:18.063Z,39.10
2018-08-03T18:01:47.657Z,39.40
2018-08-03T18:04:17.235Z,40.10
2018-08-03T18:06:46.081Z,40.30
2018-08-03T18:09:14.927Z,41.00
2018-08-03T18:11:43.763Z,40.70
2018-08-03T18:14:12.611Z,42.80
2018-08-03T18:16:41.470Z,43.00
2018-08-03T18:19:10.304Z,43.00
2018-08-03T18:21:39.204Z,41.80
2018-08-03T18:24:07.989Z,42.70
2018-08-03T18:26:36.838Z,42.70
2018-08-03T18:29:05.780Z,42.70
2018-08-03T18:31:34.552Z,43.40
2018-08-03T18:34:03.379Z,44.60
2018-08-03T18:36:32.235Z,45.50
2018-08-03T18:39:01.079Z,44.50
2018-08-03T18:41:29.928Z,44.60
2018-08-03T18:43:58.763Z,45.90
2018-08-03T18:46:27.616Z,45.20
2018-08-03T18:48:56.461Z,44.30
2018-08-03T18:51:25.352Z,44.00
2018-08-03T18:53:54.191Z,45.40
2018-08-03T18:56:23.030Z,45.50
2018-08-03T18:58:51.877Z,45.90
2018-08-03T19:01:20.714Z,47.00
2018-08-03T19:03:49.556Z,47.20
2018-08-03T19:06:18.439Z,48.10
2018-08-03T19:08:47.283Z,48.20
2018-08-03T19:11:16.119Z,49.00
2018-08-03T19:13:45.746Z,48.90
2018-08-03T19:16:14.555Z,49.20
2018-08-03T19:18:43.398Z,49.00
2018-08-03T19:21:12.239Z,49.00
2018-08-03T19:23:41.077Z,47.90
2018-08-03T19:26:09.919Z,49.60
2018-08-03T19:28:38.781Z,48.90
2018-08-03T19:31:07.621Z,50.30
2018-08-03T19:33:36.465Z,49.90
2018-08-03T19:36:05.330Z,49.00
2018-08-03T19:38:34.156Z,49.40
2018-08-03T19:41:03.002Z,49.60
2018-08-03T19:43:31.848Z,50.50
2018-08-03T19:46:00.720Z,50.90
2018-08-03T19:48:29.543Z,50.70
2018-08-03T19:50:58.388Z,50.80
2018-08-03T19:53:27.237Z,51.00
2018-08-03T19:55:56.092Z,50.50
2018-08-03T19:58:24.927Z,50.30
2018-08-03T20:00:53.785Z,50.50
2018-08-03T20:03:22.629Z,50.50
2018-08-03T20:05:51.479Z,50.80
2018-08-03T20:08:20.319Z,51.60
2018-08-03T20:10:49.174Z,52.00
2018-08-03T20:13:18.029Z,51.90
2018-08-03T20:15:46.907Z,52.20
2018-08-03T20:18:16.468Z,52.30
2018-08-03T20:20:45.335Z,52.50
2018-08-03T20:23:14.171Z,52.40
2018-08-03T20:25:43.750Z,52.70
2018-08-03T20:28:12.599Z,52.90
2018-08-03T20:30:41.504Z,52.60
2018-08-03T20:33:10.292Z,53.20
2018-08-03T20:35:39.142Z,52.60
2018-08-03T20:38:07.985Z,52.90
2018-08-03T20:40:36.842Z,52.90
2018-08-03T20:43:06.433Z,53.00
2018-08-03T20:45:35.272Z,53.10
2018-08-03T20:48:04.119Z,53.20
2018-08-03T20:50:33.726Z,53.30
2018-08-03T20:53:02.566Z,53.30
2018-08-03T20:55:31.463Z,53.30
2018-08-03T20:58:00.246Z,53.80
2018-08-03T21:00:29.113Z,53.50
2018-08-03T21:02:57.954Z,53.60
2018-08-03T21:05:26.801Z,53.60
2018-08-03T21:07:55.641Z,53.90
2018-08-03T21:10:24.524Z,54.00
2018-08-03T21:12:53.382Z,53.90
2018-08-03T21:15:22.216Z,54.10
2018-08-03T21:17:51.070Z,54.30
2018-08-03T21:20:19.906Z,54.50
2018-08-03T21:22:49.500Z,54.90
2018-08-03T21:25:19.081Z,55.70
2018-08-03T21:27:47.919Z,55.40
2018-08-03T21:30:16.814Z,56.00
2018-08-03T21:32:45.609Z,55.70
2018-08-03T21:35:14.464Z,55.80
2018-08-03T21:37:43.290Z,55.80
2018-08-03T21:40:12.132Z,56.50
2018-08-03T21:42:40.969Z,56.60
2018-08-03T21:45:09.817Z,56.80
2018-08-03T21:47:38.662Z,56.90
2018-08-03T21:50:07.500Z,56.50
2018-08-03T21:52:36.336Z,56.00
2018-08-03T21:55:05.168Z,56.40
2018-08-03T21:57:34.018Z,56.70
2018-08-03T22:00:02.869Z,56.60
2018-08-03T22:02:32.469Z,56.70
2018-08-03T22:05:01.318Z,57.10
2018-08-03T22:07:30.153Z,57.40
2018-08-03T22:09:58.994Z,57.50
2018-08-03T22:12:27.833Z,57.70
2018-08-03T22:14:56.674Z,57.80
2018-08-03T22:17:25.554Z,57.20
2018-08-03T22:19:54.361Z,57.20
2018-08-03T22:22:23.205Z,57.80
2018-08-03T22:25:05.153Z,57.80
2018-08-03T22:27:34.001Z,57.80
2018-08-03T22:30:02.846Z,58.00
2018-08-03T22:32:31.752Z,57.80
2018-08-03T22:35:00.532Z,57.80
2018-08-03T22:37:29.392Z,57.90
2018-08-03T22:39:58.245Z,57.80
2018-08-03T22:42:27.823Z,57.60
2018-08-03T22:44:56.661Z,57.10
2018-08-03T22:47:25.500Z,57.40
2018-08-03T22:49:54.370Z,57.50
2018-08-03T22:52:23.190Z,57.40
2018-08-03T22:54:52.026Z,57.90
2018-08-03T22:57:20.879Z,58.00
2018-08-03T22:59:49.721Z,57.90
2018-08-03T23:02:18.554Z,58.10
2018-08-03T23:04:47.405Z,58.20
2018-08-03T23:07:16.237Z,58.00
2018-08-03T23:09:45.073Z,58.40
2018-08-03T23:12:13.924Z,58.60
2018-08-03T23:14:42.759Z,59.00
2018-08-03T23:17:11.603Z,58.90
2018-08-03T23:19:40.444Z,59.20
2018-08-03T23:22:09.285Z,58.90
2018-08-03T23:24:38.137Z,58.60
2018-08-03T23:27:06.973Z,58.80
2018-08-03T23:29:36.565Z,58.70
2018-08-03T23:32:05.401Z,58.50
2018-08-03T23:34:34.249Z,58.80
2018-08-03T23:37:03.084Z,59.10
2018-08-03T23:39:31.922Z,59.20
2018-08-03T23:42:00.772Z,59.60
2018-08-03T23:44:29.621Z,58.60
2018-08-03T23:46:59.212Z,58.20
2018-08-03T23:49:28.806Z,58.90
2018-08-03T23:51:57.654Z,58.60
2018-08-03T23:54:26.484Z,58.20
2018-08-03T23:59:24.768Z,57.80
